sensor_id;sensor_type;location;lat;lon;timestamp;P1;durP1;ratioP1;P2;durP2;ratioP2
41661;SDS011;27351;45.992;12.666;2024-01-06T00:02:05;2.83;;;0.70;;
41661;SDS011;27351;45.992;12.666;2024-01-06T00:04:31;0.63;;;0.40;;
41661;SDS011;27351;45.992;12.666;2024-01-06T00:06:57;1.10;;;0.60;;
41661;SDS011;27351;45.992;12.666;2024-01-06T00:09:23;2.05;;;0.70;;
41661;SDS011;27351;45.992;12.666;2024-01-06T00:11:48;1.55;;;0.75;;
41661;SDS011;27351;45.992;12.666;2024-01-06T00:14:14;1.98;;;1.10;;
41661;SDS011;27351;45.992;12.666;2024-01-06T00:16:40;1.92;;;1.00;;
41661;SDS011;27351;45.992;12.666;2024-01-06T00:19:05;2.97;;;1.80;;
41661;SDS011;27351;45.992;12.666;2024-01-06T00:21:31;3.20;;;1.65;;
41661;SDS011;27351;45.992;12.666;2024-01-06T00:23:56;5.72;;;2.08;;
41661;SDS011;27351;45.992;12.666;2024-01-06T00:26:22;4.40;;;1.80;;
41661;SDS011;27351;45.992;12.666;2024-01-06T00:28:48;3.90;;;1.65;;
41661;SDS011;27351;45.992;12.666;2024-01-06T00:31:15;5.33;;;1.50;;
41661;SDS011;27351;45.992;12.666;2024-01-06T00:33:42;2.50;;;1.25;;
41661;SDS011;27351;45.992;12.666;2024-01-06T00:36:07;2.73;;;1.23;;
41661;SDS011;27351;45.992;12.666;2024-01-06T00:38:33;2.40;;;1.13;;
41661;SDS011;27351;45.992;12.666;2024-01-06T00:41:00;2.38;;;1.27;;
41661;SDS011;27351;45.992;12.666;2024-01-06T00:43:26;1.92;;;1.10;;
41661;SDS011;27351;45.992;12.666;2024-01-06T00:45:51;4.00;;;1.50;;
41661;SDS011;27351;45.992;12.666;2024-01-06T00:48:17;3.10;;;1.20;;
41661;SDS011;27351;45.992;12.666;2024-01-06T00:50:43;1.83;;;0.52;;
41661;SDS011;27351;45.992;12.666;2024-01-06T00:53:09;1.33;;;0.60;;
41661;SDS011;27351;45.992;12.666;2024-01-06T00:55:34;0.73;;;0.73;;
41661;SDS011;27351;45.992;12.666;2024-01-06T00:58:00;1.80;;;0.50;;
41661;SDS011;27351;45.992;12.666;2024-01-06T01:00:25;0.60;;;0.40;;
41661;SDS011;27351;45.992;12.666;2024-01-06T01:02:52;1.15;;;0.40;;
41661;SDS011;27351;45.992;12.666;2024-01-06T01:05:18;0.80;;;0.50;;
41661;SDS011;27351;45.992;12.666;2024-01-06T01:07:44;0.30;;;0.30;;
41661;SDS011;27351;45.992;12.666;2024-01-06T01:10:09;0.60;;;0.40;;
41661;SDS011;27351;45.992;12.666;2024-01-06T01:12:35;2.08;;;0.50;;
41661;SDS011;27351;45.992;12.666;2024-01-06T01:15:00;1.10;;;0.43;;
41661;SDS011;27351;45.992;12.666;2024-01-06T01:17:26;0.60;;;0.30;;
41661;SDS011;27351;45.992;12.666;2024-01-06T01:19:52;0.70;;;0.40;;
41661;SDS011;27351;45.992;12.666;2024-01-06T01:22:17;0.53;;;0.40;;
41661;SDS011;27351;45.992;12.666;2024-01-06T01:24:43;0.50;;;0.20;;
41661;SDS011;27351;45.992;12.666;2024-01-06T01:27:09;0.40;;;0.30;;
41661;SDS011;27351;45.992;12.666;2024-01-06T01:29:34;1.93;;;0.70;;
41661;SDS011;27351;45.992;12.666;2024-01-06T01:32:00;2.63;;;0.50;;
41661;SDS011;27351;45.992;12.666;2024-01-06T01:34:25;1.70;;;0.40;;
41661;SDS011;27351;45.992;12.666;2024-01-06T01:36:51;1.50;;;0.60;;
41661;SDS011;27351;45.992;12.666;2024-01-06T01:39:17;0.80;;;0.50;;
41661;SDS011;27351;45.992;12.666;2024-01-06T01:41:42;0.30;;;0.30;;
41661;SDS011;27351;45.992;12.666;2024-01-06T01:44:08;0.50;;;0.30;;
41661;SDS011;27351;45.992;12.666;2024-01-06T01:46:34;0.90;;;0.33;;
41661;SDS011;27351;45.992;12.666;2024-01-06T01:49:00;0.87;;;0.33;;
41661;SDS011;27351;45.992;12.666;2024-01-06T01:51:29;1.05;;;0.40;;
41661;SDS011;27351;45.992;12.666;2024-01-06T01:53:57;0.77;;;0.20;;
41661;SDS011;27351;45.992;12.666;2024-01-06T01:56:23;1.02;;;0.30;;
41661;SDS011;27351;45.992;12.666;2024-01-06T01:58:48;0.70;;;0.40;;
41661;SDS011;27351;45.992;12.666;2024-01-06T02:01:14;1.50;;;0.30;;
41661;SDS011;27351;45.992;12.666;2024-01-06T02:03:41;1.27;;;0.30;;
41661;SDS011;27351;45.992;12.666;2024-01-06T02:06:08;1.40;;;0.20;;
41661;SDS011;27351;45.992;12.666;2024-01-06T02:08:34;1.20;;;0.40;;
41661;SDS011;27351;45.992;12.666;2024-01-06T02:10:59;0.60;;;0.20;;
41661;SDS011;27351;45.992;12.666;2024-01-06T02:13:32;2.50;;;0.33;;
41661;SDS011;27351;45.992;12.666;2024-01-06T02:15:57;0.73;;;0.32;;
41661;SDS011;27351;45.992;12.666;2024-01-06T02:18:23;0.98;;;0.35;;
41661;SDS011;27351;45.992;12.666;2024-01-06T02:20:48;1.08;;;0.98;;
41661;SDS011;27351;45.992;12.666;2024-01-06T02:23:15;0.50;;;0.30;;
41661;SDS011;27351;45.992;12.666;2024-01-06T02:25:40;1.13;;;0.50;;
41661;SDS011;27351;45.992;12.666;2024-01-06T02:28:06;0.40;;;0.40;;
41661;SDS011;27351;45.992;12.666;2024-01-06T02:30:31;0.80;;;0.30;;
41661;SDS011;27351;45.992;12.666;2024-01-06T02:32:57;0.32;;;0.28;;
41661;SDS011;27351;45.992;12.666;2024-01-06T02:35:23;0.70;;;0.45;;
41661;SDS011;27351;45.992;12.666;2024-01-06T02:37:48;1.00;;;0.30;;
41661;SDS011;27351;45.992;12.666;2024-01-06T02:40:14;0.70;;;0.40;;
41661;SDS011;27351;45.992;12.666;2024-01-06T02:42:39;2.07;;;0.67;;
41661;SDS011;27351;45.992;12.666;2024-01-06T02:45:06;1.57;;;0.83;;
41661;SDS011;27351;45.992;12.666;2024-01-06T02:47:32;0.80;;;0.33;;
41661;SDS011;27351;45.992;12.666;2024-01-06T02:49:57;0.50;;;0.30;;
41661;SDS011;27351;45.992;12.666;2024-01-06T02:52:23;1.30;;;0.40;;
41661;SDS011;27351;45.992;12.666;2024-01-06T02:54:48;0.40;;;0.20;;
41661;SDS011;27351;45.992;12.666;2024-01-06T02:57:14;0.20;;;0.20;;
41661;SDS011;27351;45.992;12.666;2024-01-06T02:59:40;0.10;;;0.10;;
41661;SDS011;27351;45.992;12.666;2024-01-06T03:02:06;0.10;;;0.10;;
41661;SDS011;27351;45.992;12.666;2024-01-06T03:04:32;0.20;;;0.20;;
41661;SDS011;27351;45.992;12.666;2024-01-06T03:06:58;0.68;;;0.30;;
41661;SDS011;27351;45.992;12.666;2024-01-06T03:09:23;0.10;;;0.10;;
41661;SDS011;27351;45.992;12.666;2024-01-06T03:11:49;0.17;;;0.17;;
41661;SDS011;27351;45.992;12.666;2024-01-06T03:14:14;0.08;;;0.08;;
41661;SDS011;27351;45.992;12.666;2024-01-06T03:16:40;0.10;;;0.10;;
41661;SDS011;27351;45.992;12.666;2024-01-06T03:19:06;0.15;;;0.15;;
41661;SDS011;27351;45.992;12.666;2024-01-06T03:21:31;0.57;;;0.20;;
41661;SDS011;27351;45.992;12.666;2024-01-06T03:23:57;0.10;;;0.10;;
41661;SDS011;27351;45.992;12.666;2024-01-06T03:26:22;0.40;;;0.20;;
41661;SDS011;27351;45.992;12.666;2024-01-06T03:28:51;0.17;;;0.17;;
41661;SDS011;27351;45.992;12.666;2024-01-06T03:31:17;0.30;;;0.20;;
41661;SDS011;27351;45.992;12.666;2024-01-06T03:33:43;0.40;;;0.20;;
41661;SDS011;27351;45.992;12.666;2024-01-06T03:36:09;0.35;;;0.30;;
41661;SDS011;27351;45.992;12.666;2024-01-06T03:38:35;0.40;;;0.20;;
41661;SDS011;27351;45.992;12.666;2024-01-06T03:41:00;0.63;;;0.27;;
41661;SDS011;27351;45.992;12.666;2024-01-06T03:43:26;1.00;;;0.30;;
41661;SDS011;27351;45.992;12.666;2024-01-06T03:45:51;0.10;;;0.10;;
41661;SDS011;27351;45.992;12.666;2024-01-06T03:48:17;1.00;;;0.20;;
41661;SDS011;27351;45.992;12.666;2024-01-06T03:50:43;0.35;;;0.20;;
41661;SDS011;27351;45.992;12.666;2024-01-06T03:53:08;0.10;;;0.10;;
41661;SDS011;27351;45.992;12.666;2024-01-06T03:55:34;0.10;;;0.10;;
41661;SDS011;27351;45.992;12.666;2024-01-06T03:57:59;0.10;;;0.10;;
41661;SDS011;27351;45.992;12.666;2024-01-06T04:00:25;0.10;;;0.10;;
41661;SDS011;27351;45.992;12.666;2024-01-06T04:02:51;0.03;;;0.03;;
41661;SDS011;27351;45.992;12.666;2024-01-06T04:05:17;0.10;;;0.10;;
41661;SDS011;27351;45.992;12.666;2024-01-06T04:07:42;0.40;;;0.20;;
41661;SDS011;27351;45.992;12.666;2024-01-06T04:10:08;0.32;;;0.20;;
41661;SDS011;27351;45.992;12.666;2024-01-06T04:12:34;0.20;;;0.13;;
41661;SDS011;27351;45.992;12.666;2024-01-06T04:14:59;0.40;;;0.10;;
41661;SDS011;27351;45.992;12.666;2024-01-06T04:17:25;0.10;;;0.10;;
41661;SDS011;27351;45.992;12.666;2024-01-06T04:19:52;0.10;;;0.10;;
41661;SDS011;27351;45.992;12.666;2024-01-06T04:22:18;0.40;;;0.20;;
41661;SDS011;27351;45.992;12.666;2024-01-06T04:24:43;0.10;;;0.10;;
41661;SDS011;27351;45.992;12.666;2024-01-06T04:27:09;0.17;;;0.10;;
41661;SDS011;27351;45.992;12.666;2024-01-06T04:29:35;0.10;;;0.10;;
41661;SDS011;27351;45.992;12.666;2024-01-06T04:32:00;1.20;;;0.40;;
41661;SDS011;27351;45.992;12.666;2024-01-06T04:34:26;0.60;;;0.20;;
41661;SDS011;27351;45.992;12.666;2024-01-06T04:36:52;0.13;;;0.10;;
41661;SDS011;27351;45.992;12.666;2024-01-06T04:39:18;0.13;;;0.13;;
41661;SDS011;27351;45.992;12.666;2024-01-06T04:41:43;0.20;;;0.10;;
41661;SDS011;27351;45.992;12.666;2024-01-06T04:44:09;0.53;;;0.30;;
41661;SDS011;27351;45.992;12.666;2024-01-06T04:46:34;0.10;;;0.10;;
41661;SDS011;27351;45.992;12.666;2024-01-06T04:49:00;0.20;;;0.20;;
41661;SDS011;27351;45.992;12.666;2024-01-06T04:51:25;0.40;;;0.20;;
41661;SDS011;27351;45.992;12.666;2024-01-06T04:53:51;0.10;;;0.10;;
41661;SDS011;27351;45.992;12.666;2024-01-06T04:56:16;0.20;;;0.20;;
41661;SDS011;27351;45.992;12.666;2024-01-06T04:58:42;0.10;;;0.10;;
41661;SDS011;27351;45.992;12.666;2024-01-06T05:01:08;0.60;;;0.27;;
41661;SDS011;27351;45.992;12.666;2024-01-06T05:03:33;0.20;;;0.10;;
41661;SDS011;27351;45.992;12.666;2024-01-06T05:05:59;0.27;;;0.20;;
41661;SDS011;27351;45.992;12.666;2024-01-06T05:08:24;0.90;;;0.20;;
41661;SDS011;27351;45.992;12.666;2024-01-06T05:10:51;0.57;;;0.20;;
41661;SDS011;27351;45.992;12.666;2024-01-06T05:13:17;0.60;;;0.20;;
41661;SDS011;27351;45.992;12.666;2024-01-06T05:15:43;0.22;;;0.13;;
41661;SDS011;27351;45.992;12.666;2024-01-06T05:18:08;0.17;;;0.17;;
41661;SDS011;27351;45.992;12.666;2024-01-06T05:20:34;0.20;;;0.20;;
41661;SDS011;27351;45.992;12.666;2024-01-06T05:23:00;1.00;;;0.30;;
41661;SDS011;27351;45.992;12.666;2024-01-06T05:25:25;1.60;;;0.40;;
41661;SDS011;27351;45.992;12.666;2024-01-06T05:27:51;1.10;;;0.20;;
41661;SDS011;27351;45.992;12.666;2024-01-06T05:30:17;0.77;;;0.20;;
41661;SDS011;27351;45.992;12.666;2024-01-06T05:32:43;0.63;;;0.20;;
41661;SDS011;27351;45.992;12.666;2024-01-06T05:35:09;0.80;;;0.30;;
41661;SDS011;27351;45.992;12.666;2024-01-06T05:37:35;0.50;;;0.30;;
41661;SDS011;27351;45.992;12.666;2024-01-06T05:40:00;0.30;;;0.30;;
41661;SDS011;27351;45.992;12.666;2024-01-06T05:42:29;0.40;;;0.20;;
41661;SDS011;27351;45.992;12.666;2024-01-06T05:44:54;0.32;;;0.30;;
41661;SDS011;27351;45.992;12.666;2024-01-06T05:47:20;0.20;;;0.10;;
41661;SDS011;27351;45.992;12.666;2024-01-06T05:49:46;1.38;;;0.50;;
41661;SDS011;27351;45.992;12.666;2024-01-06T05:52:11;0.40;;;0.20;;
41661;SDS011;27351;45.992;12.666;2024-01-06T05:54:40;1.25;;;0.55;;
41661;SDS011;27351;45.992;12.666;2024-01-06T05:57:06;1.00;;;0.22;;
41661;SDS011;27351;45.992;12.666;2024-01-06T05:59:32;0.90;;;0.30;;
41661;SDS011;27351;45.992;12.666;2024-01-06T06:01:59;1.10;;;0.30;;
41661;SDS011;27351;45.992;12.666;2024-01-06T06:04:25;0.25;;;0.10;;
41661;SDS011;27351;45.992;12.666;2024-01-06T06:06:51;2.33;;;0.30;;
41661;SDS011;27351;45.992;12.666;2024-01-06T06:09:16;1.20;;;0.30;;
41661;SDS011;27351;45.992;12.666;2024-01-06T06:11:42;0.20;;;0.20;;
41661;SDS011;27351;45.992;12.666;2024-01-06T06:14:08;0.43;;;0.40;;
41661;SDS011;27351;45.992;12.666;2024-01-06T06:16:34;0.82;;;0.30;;
41661;SDS011;27351;45.992;12.666;2024-01-06T06:18:59;0.30;;;0.30;;
41661;SDS011;27351;45.992;12.666;2024-01-06T06:21:25;0.50;;;0.40;;
41661;SDS011;27351;45.992;12.666;2024-01-06T06:23:51;1.00;;;0.30;;
41661;SDS011;27351;45.992;12.666;2024-01-06T06:26:16;1.10;;;0.30;;
41661;SDS011;27351;45.992;12.666;2024-01-06T06:28:42;0.70;;;0.30;;
41661;SDS011;27351;45.992;12.666;2024-01-06T06:31:08;0.47;;;0.20;;
41661;SDS011;27351;45.992;12.666;2024-01-06T06:33:33;0.70;;;0.20;;
41661;SDS011;27351;45.992;12.666;2024-01-06T06:35:59;0.20;;;0.20;;
41661;SDS011;27351;45.992;12.666;2024-01-06T06:38:25;0.50;;;0.22;;
41661;SDS011;27351;45.992;12.666;2024-01-06T06:40:51;1.17;;;0.30;;
41661;SDS011;27351;45.992;12.666;2024-01-06T06:43:16;0.88;;;0.30;;
41661;SDS011;27351;45.992;12.666;2024-01-06T06:45:42;0.15;;;0.10;;
41661;SDS011;27351;45.992;12.666;2024-01-06T06:48:07;0.40;;;0.20;;
41661;SDS011;27351;45.992;12.666;2024-01-06T06:50:33;0.30;;;0.20;;
41661;SDS011;27351;45.992;12.666;2024-01-06T06:52:59;0.20;;;0.20;;
41661;SDS011;27351;45.992;12.666;2024-01-06T06:55:24;1.37;;;1.00;;
41661;SDS011;27351;45.992;12.666;2024-01-06T06:57:50;0.13;;;0.13;;
41661;SDS011;27351;45.992;12.666;2024-01-06T07:00:16;0.60;;;0.27;;
41661;SDS011;27351;45.992;12.666;2024-01-06T07:02:42;0.38;;;0.20;;
41661;SDS011;27351;45.992;12.666;2024-01-06T07:05:08;0.50;;;0.20;;
41661;SDS011;27351;45.992;12.666;2024-01-06T07:07:33;0.40;;;0.30;;
41661;SDS011;27351;45.992;12.666;2024-01-06T07:10:02;0.77;;;0.35;;
41661;SDS011;27351;45.992;12.666;2024-01-06T07:12:30;0.65;;;0.35;;
41661;SDS011;27351;45.992;12.666;2024-01-06T07:14:56;0.40;;;0.40;;
41661;SDS011;27351;45.992;12.666;2024-01-06T07:17:22;1.20;;;0.53;;
41661;SDS011;27351;45.992;12.666;2024-01-06T07:19:48;0.57;;;0.47;;
41661;SDS011;27351;45.992;12.666;2024-01-06T07:22:14;0.73;;;0.30;;
41661;SDS011;27351;45.992;12.666;2024-01-06T07:24:41;0.43;;;0.43;;
41661;SDS011;27351;45.992;12.666;2024-01-06T07:27:07;0.73;;;0.40;;
41661;SDS011;27351;45.992;12.666;2024-01-06T07:29:33;0.40;;;0.30;;
41661;SDS011;27351;45.992;12.666;2024-01-06T07:31:58;1.50;;;0.20;;
41661;SDS011;27351;45.992;12.666;2024-01-06T07:34:24;0.33;;;0.33;;
41661;SDS011;27351;45.992;12.666;2024-01-06T07:36:50;0.80;;;0.30;;
41661;SDS011;27351;45.992;12.666;2024-01-06T07:39:16;2.55;;;0.40;;
41661;SDS011;27351;45.992;12.666;2024-01-06T07:41:42;1.70;;;0.38;;
41661;SDS011;27351;45.992;12.666;2024-01-06T07:44:09;0.38;;;0.38;;
41661;SDS011;27351;45.992;12.666;2024-01-06T07:46:35;0.40;;;0.20;;
41661;SDS011;27351;45.992;12.666;2024-01-06T07:49:02;0.22;;;0.20;;
41661;SDS011;27351;45.992;12.666;2024-01-06T07:51:28;0.70;;;0.37;;
41661;SDS011;27351;45.992;12.666;2024-01-06T07:53:53;0.20;;;0.20;;
41661;SDS011;27351;45.992;12.666;2024-01-06T07:56:19;0.33;;;0.33;;
41661;SDS011;27351;45.992;12.666;2024-01-06T07:58:44;0.75;;;0.30;;
41661;SDS011;27351;45.992;12.666;2024-01-06T08:01:10;0.50;;;0.40;;
41661;SDS011;27351;45.992;12.666;2024-01-06T08:03:36;0.60;;;0.38;;
41661;SDS011;27351;45.992;12.666;2024-01-06T08:06:01;0.53;;;0.23;;
41661;SDS011;27351;45.992;12.666;2024-01-06T08:08:28;1.53;;;0.50;;
41661;SDS011;27351;45.992;12.666;2024-01-06T08:10:53;1.07;;;0.43;;
41661;SDS011;27351;45.992;12.666;2024-01-06T08:13:19;0.50;;;0.30;;
41661;SDS011;27351;45.992;12.666;2024-01-06T08:15:45;0.50;;;0.30;;
41661;SDS011;27351;45.992;12.666;2024-01-06T08:18:10;0.67;;;0.37;;
41661;SDS011;27351;45.992;12.666;2024-01-06T08:20:36;2.47;;;0.77;;
41661;SDS011;27351;45.992;12.666;2024-01-06T08:23:01;1.08;;;0.50;;
41661;SDS011;27351;45.992;12.666;2024-01-06T08:25:27;0.63;;;0.40;;
41661;SDS011;27351;45.992;12.666;2024-01-06T08:27:53;0.93;;;0.47;;
41661;SDS011;27351;45.992;12.666;2024-01-06T08:30:19;1.30;;;0.68;;
41661;SDS011;27351;45.992;12.666;2024-01-06T08:32:44;0.50;;;0.47;;
41661;SDS011;27351;45.992;12.666;2024-01-06T08:35:10;0.50;;;0.40;;
41661;SDS011;27351;45.992;12.666;2024-01-06T08:37:41;0.98;;;0.43;;
41661;SDS011;27351;45.992;12.666;2024-01-06T08:40:07;0.68;;;0.40;;
41661;SDS011;27351;45.992;12.666;2024-01-06T08:42:33;1.75;;;0.47;;
41661;SDS011;27351;45.992;12.666;2024-01-06T08:44:59;0.60;;;0.40;;
41661;SDS011;27351;45.992;12.666;2024-01-06T08:47:24;1.53;;;0.70;;
41661;SDS011;27351;45.992;12.666;2024-01-06T08:49:50;1.17;;;0.55;;
41661;SDS011;27351;45.992;12.666;2024-01-06T08:52:15;1.35;;;0.60;;
41661;SDS011;27351;45.992;12.666;2024-01-06T08:54:41;0.90;;;0.38;;
41661;SDS011;27351;45.992;12.666;2024-01-06T08:57:06;1.38;;;0.82;;
41661;SDS011;27351;45.992;12.666;2024-01-06T08:59:32;0.90;;;0.70;;
41661;SDS011;27351;45.992;12.666;2024-01-06T09:01:57;0.60;;;0.40;;
41661;SDS011;27351;45.992;12.666;2024-01-06T09:04:23;0.80;;;0.40;;
41661;SDS011;27351;45.992;12.666;2024-01-06T09:06:49;1.73;;;0.90;;
41661;SDS011;27351;45.992;12.666;2024-01-06T09:09:16;1.20;;;0.50;;
41661;SDS011;27351;45.992;12.666;2024-01-06T09:11:41;1.00;;;0.50;;
41661;SDS011;27351;45.992;12.666;2024-01-06T09:14:09;0.85;;;0.50;;
41661;SDS011;27351;45.992;12.666;2024-01-06T09:16:36;0.90;;;0.60;;
41661;SDS011;27351;45.992;12.666;2024-01-06T09:19:02;3.20;;;1.10;;
41661;SDS011;27351;45.992;12.666;2024-01-06T09:21:27;1.23;;;0.80;;
41661;SDS011;27351;45.992;12.666;2024-01-06T09:23:53;2.85;;;1.00;;
41661;SDS011;27351;45.992;12.666;2024-01-06T09:26:19;2.20;;;1.07;;
41661;SDS011;27351;45.992;12.666;2024-01-06T09:28:44;1.48;;;0.80;;
41661;SDS011;27351;45.992;12.666;2024-01-06T09:31:10;0.47;;;0.47;;
41661;SDS011;27351;45.992;12.666;2024-01-06T09:33:35;2.07;;;0.77;;
41661;SDS011;27351;45.992;12.666;2024-01-06T09:36:01;0.60;;;0.40;;
41661;SDS011;27351;45.992;12.666;2024-01-06T09:38:27;0.87;;;0.50;;
41661;SDS011;27351;45.992;12.666;2024-01-06T09:40:53;0.95;;;0.63;;
41661;SDS011;27351;45.992;12.666;2024-01-06T09:43:19;0.77;;;0.50;;
41661;SDS011;27351;45.992;12.666;2024-01-06T09:45:48;1.65;;;0.90;;
41661;SDS011;27351;45.992;12.666;2024-01-06T09:48:19;1.27;;;0.32;;
41661;SDS011;27351;45.992;12.666;2024-01-06T09:50:45;0.95;;;0.50;;
41661;SDS011;27351;45.992;12.666;2024-01-06T09:53:11;0.90;;;0.33;;
41661;SDS011;27351;45.992;12.666;2024-01-06T09:55:37;0.73;;;0.40;;
41661;SDS011;27351;45.992;12.666;2024-01-06T09:58:03;0.80;;;0.52;;
41661;SDS011;27351;45.992;12.666;2024-01-06T10:00:30;2.72;;;1.70;;
41661;SDS011;27351;45.992;12.666;2024-01-06T10:02:55;0.93;;;0.40;;
41661;SDS011;27351;45.992;12.666;2024-01-06T10:05:21;1.50;;;0.50;;
41661;SDS011;27351;45.992;12.666;2024-01-06T10:07:47;0.70;;;0.47;;
41661;SDS011;27351;45.992;12.666;2024-01-06T10:10:13;1.10;;;0.40;;
41661;SDS011;27351;45.992;12.666;2024-01-06T10:12:40;0.30;;;0.30;;
41661;SDS011;27351;45.992;12.666;2024-01-06T10:15:06;0.60;;;0.40;;
41661;SDS011;27351;45.992;12.666;2024-01-06T10:17:32;0.90;;;0.47;;
41661;SDS011;27351;45.992;12.666;2024-01-06T10:19:59;0.68;;;0.40;;
41661;SDS011;27351;45.992;12.666;2024-01-06T10:22:24;0.55;;;0.45;;
41661;SDS011;27351;45.992;12.666;2024-01-06T10:24:50;1.38;;;0.70;;
41661;SDS011;27351;45.992;12.666;2024-01-06T10:27:16;1.23;;;0.60;;
41661;SDS011;27351;45.992;12.666;2024-01-06T10:29:41;2.20;;;0.90;;
41661;SDS011;27351;45.992;12.666;2024-01-06T10:32:07;1.45;;;0.68;;
41661;SDS011;27351;45.992;12.666;2024-01-06T10:34:33;1.10;;;0.77;;
41661;SDS011;27351;45.992;12.666;2024-01-06T10:36:59;1.97;;;0.90;;
41661;SDS011;27351;45.992;12.666;2024-01-06T10:39:25;1.03;;;0.53;;
41661;SDS011;27351;45.992;12.666;2024-01-06T10:41:51;0.75;;;0.50;;
41661;SDS011;27351;45.992;12.666;2024-01-06T10:44:17;1.42;;;0.70;;
41661;SDS011;27351;45.992;12.666;2024-01-06T10:46:44;1.75;;;0.60;;
41661;SDS011;27351;45.992;12.666;2024-01-06T10:49:09;1.20;;;0.70;;
41661;SDS011;27351;45.992;12.666;2024-01-06T10:51:37;0.40;;;0.38;;
41661;SDS011;27351;45.992;12.666;2024-01-06T10:54:02;0.85;;;0.38;;
41661;SDS011;27351;45.992;12.666;2024-01-06T10:56:33;0.70;;;0.30;;
41661;SDS011;27351;45.992;12.666;2024-01-06T10:59:01;1.60;;;0.40;;
41661;SDS011;27351;45.992;12.666;2024-01-06T11:01:28;0.40;;;0.38;;
41661;SDS011;27351;45.992;12.666;2024-01-06T11:03:55;1.60;;;0.40;;
41661;SDS011;27351;45.992;12.666;2024-01-06T11:06:20;1.90;;;0.40;;
41661;SDS011;27351;45.992;12.666;2024-01-06T11:11:20;1.30;;;0.40;;
41661;SDS011;27351;45.992;12.666;2024-01-06T11:13:46;0.10;;;0.10;;
41661;SDS011;27351;45.992;12.666;2024-01-06T11:18:58;0.10;;;0.10;;
41661;SDS011;27351;45.992;12.666;2024-01-06T11:21:24;0.10;;;0.10;;
41661;SDS011;27351;45.992;12.666;2024-01-06T11:26:32;0.00;;;0.00;;
41661;SDS011;27351;45.992;12.666;2024-01-06T11:28:57;0.10;;;0.10;;
41661;SDS011;27351;45.992;12.666;2024-01-06T11:31:28;0.15;;;0.15;;
41661;SDS011;27351;45.992;12.666;2024-01-06T11:33:55;0.15;;;0.15;;
41661;SDS011;27351;45.992;12.666;2024-01-06T11:36:21;0.40;;;0.10;;
41661;SDS011;27351;45.992;12.666;2024-01-06T11:38:47;0.10;;;0.10;;
41661;SDS011;27351;45.992;12.666;2024-01-06T11:44:02;0.20;;;0.13;;
41661;SDS011;27351;45.992;12.666;2024-01-06T11:46:29;0.10;;;0.10;;
41661;SDS011;27351;45.992;12.666;2024-01-06T11:48:55;3.17;;;1.73;;
41661;SDS011;27351;45.992;12.666;2024-01-06T11:51:21;0.35;;;0.20;;
41661;SDS011;27351;45.992;12.666;2024-01-06T11:53:46;0.85;;;0.35;;
41661;SDS011;27351;45.992;12.666;2024-01-06T11:56:12;0.10;;;0.10;;
41661;SDS011;27351;45.992;12.666;2024-01-06T11:58:40;0.60;;;0.50;;
41661;SDS011;27351;45.992;12.666;2024-01-06T12:01:06;0.20;;;0.20;;
41661;SDS011;27351;45.992;12.666;2024-01-06T12:03:31;1.43;;;0.23;;
41661;SDS011;27351;45.992;12.666;2024-01-06T12:06:01;0.10;;;0.10;;
41661;SDS011;27351;45.992;12.666;2024-01-06T12:08:28;0.10;;;0.10;;
41661;SDS011;27351;45.992;12.666;2024-01-06T12:11:12;0.30;;;0.30;;
41661;SDS011;27351;45.992;12.666;2024-01-06T12:13:40;0.30;;;0.20;;
41661;SDS011;27351;45.992;12.666;2024-01-06T12:16:05;0.30;;;0.10;;
41661;SDS011;27351;45.992;12.666;2024-01-06T12:18:31;0.75;;;0.25;;
41661;SDS011;27351;45.992;12.666;2024-01-06T12:20:58;0.55;;;0.22;;
41661;SDS011;27351;45.992;12.666;2024-01-06T12:23:27;0.10;;;0.10;;
41661;SDS011;27351;45.992;12.666;2024-01-06T12:25:55;0.77;;;0.20;;
41661;SDS011;27351;45.992;12.666;2024-01-06T12:28:21;0.10;;;0.10;;
41661;SDS011;27351;45.992;12.666;2024-01-06T12:30:47;0.10;;;0.10;;
41661;SDS011;27351;45.992;12.666;2024-01-06T12:33:12;0.13;;;0.10;;
41661;SDS011;27351;45.992;12.666;2024-01-06T12:35:39;0.13;;;0.08;;
41661;SDS011;27351;45.992;12.666;2024-01-06T12:38:08;0.40;;;0.20;;
41661;SDS011;27351;45.992;12.666;2024-01-06T12:40:35;0.10;;;0.10;;
41661;SDS011;27351;45.992;12.666;2024-01-06T12:43:00;0.90;;;0.22;;
41661;SDS011;27351;45.992;12.666;2024-01-06T12:45:26;0.75;;;0.30;;
41661;SDS011;27351;45.992;12.666;2024-01-06T12:47:53;0.60;;;0.40;;
41661;SDS011;27351;45.992;12.666;2024-01-06T12:50:19;1.60;;;0.20;;
41661;SDS011;27351;45.992;12.666;2024-01-06T12:52:44;0.40;;;0.20;;
41661;SDS011;27351;45.992;12.666;2024-01-06T12:55:11;0.15;;;0.13;;
41661;SDS011;27351;45.992;12.666;2024-01-06T12:57:37;0.40;;;0.10;;
41661;SDS011;27351;45.992;12.666;2024-01-06T13:00:03;0.32;;;0.15;;
41661;SDS011;27351;45.992;12.666;2024-01-06T13:02:31;0.20;;;0.10;;
41661;SDS011;27351;45.992;12.666;2024-01-06T13:04:56;0.10;;;0.10;;
41661;SDS011;27351;45.992;12.666;2024-01-06T13:07:23;0.10;;;0.10;;
41661;SDS011;27351;45.992;12.666;2024-01-06T13:09:48;0.10;;;0.10;;
41661;SDS011;27351;45.992;12.666;2024-01-06T13:12:14;0.10;;;0.10;;
41661;SDS011;27351;45.992;12.666;2024-01-06T13:14:40;0.10;;;0.03;;
41661;SDS011;27351;45.992;12.666;2024-01-06T13:17:05;0.07;;;0.00;;
41661;SDS011;27351;45.992;12.666;2024-01-06T13:19:31;0.10;;;0.10;;
41661;SDS011;27351;45.992;12.666;2024-01-06T13:21:57;0.10;;;0.10;;
41661;SDS011;27351;45.992;12.666;2024-01-06T13:24:22;0.20;;;0.20;;
41661;SDS011;27351;45.992;12.666;2024-01-06T13:26:48;0.32;;;0.30;;
41661;SDS011;27351;45.992;12.666;2024-01-06T13:29:14;0.40;;;0.07;;
41661;SDS011;27351;45.992;12.666;2024-01-06T13:31:40;2.10;;;0.20;;
41661;SDS011;27351;45.992;12.666;2024-01-06T13:34:06;0.20;;;0.20;;
41661;SDS011;27351;45.992;12.666;2024-01-06T13:36:31;0.20;;;0.20;;
41661;SDS011;27351;45.992;12.666;2024-01-06T13:38:57;2.00;;;0.40;;
41661;SDS011;27351;45.992;12.666;2024-01-06T13:41:25;0.10;;;0.10;;
41661;SDS011;27351;45.992;12.666;2024-01-06T13:43:50;0.10;;;0.10;;
41661;SDS011;27351;45.992;12.666;2024-01-06T13:46:16;0.27;;;0.10;;
41661;SDS011;27351;45.992;12.666;2024-01-06T13:48:41;0.37;;;0.30;;
41661;SDS011;27351;45.992;12.666;2024-01-06T13:51:07;0.50;;;0.30;;
41661;SDS011;27351;45.992;12.666;2024-01-06T13:53:33;0.50;;;0.20;;
41661;SDS011;27351;45.992;12.666;2024-01-06T13:55:58;0.50;;;0.30;;
41661;SDS011;27351;45.992;12.666;2024-01-06T13:58:24;0.43;;;0.23;;
41661;SDS011;27351;45.992;12.666;2024-01-06T14:00:50;0.55;;;0.20;;
41661;SDS011;27351;45.992;12.666;2024-01-06T14:03:16;0.37;;;0.30;;
41661;SDS011;27351;45.992;12.666;2024-01-06T14:05:41;0.40;;;0.33;;
41661;SDS011;27351;45.992;12.666;2024-01-06T14:08:07;0.80;;;0.37;;
41661;SDS011;27351;45.992;12.666;2024-01-06T14:10:33;0.50;;;0.20;;
41661;SDS011;27351;45.992;12.666;2024-01-06T14:12:59;0.20;;;0.20;;
41661;SDS011;27351;45.992;12.666;2024-01-06T14:15:24;0.10;;;0.10;;
41661;SDS011;27351;45.992;12.666;2024-01-06T14:17:52;0.32;;;0.10;;
41661;SDS011;27351;45.992;12.666;2024-01-06T14:20:17;0.10;;;0.10;;
41661;SDS011;27351;45.992;12.666;2024-01-06T14:22:47;0.10;;;0.10;;
41661;SDS011;27351;45.992;12.666;2024-01-06T14:25:14;0.30;;;0.20;;
41661;SDS011;27351;45.992;12.666;2024-01-06T14:27:40;0.30;;;0.20;;
41661;SDS011;27351;45.992;12.666;2024-01-06T14:30:06;0.63;;;0.20;;
41661;SDS011;27351;45.992;12.666;2024-01-06T14:32:35;0.30;;;0.25;;
41661;SDS011;27351;45.992;12.666;2024-01-06T14:35:05;0.15;;;0.15;;
41661;SDS011;27351;45.992;12.666;2024-01-06T14:37:32;0.10;;;0.10;;